Time;durP1;ratioP1;P1;durP2;ratioP2;P2;SDS_P1;SDS_P2;PMS_P1;PMS_P2;Temp;Humidity;BMP_temperature;BMP_pressure;BME280_temperature;BME280_humidity;BME280_pressure;Samples;Min_cycle;Max_cycle;Signal;HPM_P1;HPM_P2
2022/08/17 00:00:31;;;;;;;7.10;6.50;;;;;;;19.46;98.05;99524.25;5046142;28;20186;-77
2022/08/17 00:03:03;;;;;;;6.50;6.00;;;;;;;19.44;98.43;99514.78;5057971;28;20381;-76
2022/08/17 00:05:37;;;;;;;6.63;6.03;;;;;;;19.43;98.61;99528.84;5050568;28;20279;-76
2022/08/17 00:08:03;;;;;;;5.83;5.43;;;;;;;19.42;98.57;99525.38;5046016;28;20194;-76
2022/08/17 00:10:28;;;;;;;6.90;6.30;;;;;;;19.46;97.12;99532.13;5045045;28;20201;-76
2022/08/17 00:12:54;;;;;;;6.10;5.60;;;;;;;19.46;96.94;99528.66;5048585;28;20241;-76
2022/08/17 00:15:20;;;;;;;6.13;5.73;;;;;;;19.46;97.48;99536.53;5049629;28;20201;-76
2022/08/17 00:17:48;;;;;;;6.47;5.97;;;;;;;19.42;97.49;99537.66;5044232;28;20249;-77
2022/08/17 00:20:14;;;;;;;7.10;6.50;;;;;;;19.42;97.62;99543.75;5057162;28;20260;-75
2022/08/17 00:22:40;;;;;;;6.07;5.67;;;;;;;19.41;96.13;99542.06;5048568;28;20227;-76
2022/08/17 00:25:11;;;;;;;6.43;5.93;;;;;;;19.44;96.49;99526.13;5055512;28;20184;-78
2022/08/17 00:27:37;;;;;;;7.77;6.20;;;;;;;19.48;96.02;99532.06;5055414;28;20274;-77
2022/08/17 00:30:09;;;;;;;6.13;5.63;;;;;;;19.53;96.35;99527.38;5047342;28;20222;-76
2022/08/17 00:32:45;;;;;;;6.47;5.97;;;;;;;19.56;96.98;99524.56;5049157;28;20706;-75
2022/08/17 00:35:14;;;;;;;6.90;6.40;;;;;;;19.53;96.28;99524.75;5049798;28;20700;-76
2022/08/17 00:37:40;;;;;;;6.37;5.77;;;;;;;19.50;96.47;99533.66;5047889;28;20217;-77
2022/08/17 00:40:09;;;;;;;7.07;6.40;;;;;;;19.48;96.89;99532.88;5049427;28;20210;-76
2022/08/17 00:42:34;;;;;;;6.80;6.30;;;;;;;19.43;97.12;99520.97;5051892;28;20222;-75
2022/08/17 00:45:00;;;;;;;6.13;5.73;;;;;;;19.37;96.85;99522.19;5045712;28;20193;-74
2022/08/17 00:47:25;;;;;;;6.57;6.07;;;;;;;19.33;97.04;99524.13;5048172;28;20181;-75
2022/08/17 00:49:51;;;;;;;6.57;6.17;;;;;;;19.32;97.42;99522.44;5045974;28;20360;-76
2022/08/17 00:52:21;;;;;;;6.90;6.33;;;;;;;19.33;97.91;99518.91;5052106;28;20180;-76
2022/08/17 00:54:51;;;;;;;6.57;5.97;;;;;;;19.32;97.13;99527.69;5047437;28;20180;-76
2022/08/17 00:57:18;;;;;;;6.43;5.93;;;;;;;19.31;97.22;99528.63;5055090;28;20565;-76
2022/08/17 00:59:48;;;;;;;6.93;6.43;;;;;;;19.31;96.64;99518.13;5051314;28;20209;-75
2022/08/17 01:02:16;;;;;;;6.30;5.70;;;;;;;19.34;96.93;99524.97;5044432;28;20302;-75
2022/08/17 01:04:44;;;;;;;6.50;6.00;;;;;;;19.38;96.54;99516.00;5045182;28;20185;-76
2022/08/17 01:07:11;;;;;;;5.83;5.43;;;;;;;19.41;96.96;99509.72;5047647;28;20998;-76
2022/08/17 01:09:37;;;;;;;6.07;5.67;;;;;;;19.44;97.02;99501.69;5049219;28;20902;-76
2022/08/17 01:12:07;;;;;;;7.20;6.47;;;;;;;19.43;97.23;99506.09;5043835;28;20220;-74
2022/08/17 01:14:32;;;;;;;6.30;5.80;;;;;;;19.42;97.70;99509.66;5046331;28;20252;-74
2022/08/17 01:16:59;;;;;;;6.90;6.30;;;;;;;19.41;98.20;99512.34;5044993;28;20186;-78
2022/08/17 01:19:35;;;;;;;6.20;5.80;;;;;;;19.40;98.74;99511.50;5044036;28;20192;-76
2022/08/17 01:22:09;;;;;;;6.57;6.17;;;;;;;19.36;99.33;99519.66;5043312;28;20299;-75
2022/08/17 01:24:37;;;;;;;6.77;6.27;;;;;;;19.32;100.00;99529.47;5046541;28;20555;-75
2022/08/17 01:27:04;;;;;;;6.10;5.70;;;;;;;19.28;100.00;99528.78;5042300;28;20191;-77
2022/08/17 01:29:31;;;;;;;6.97;6.53;;;;;;;19.24;100.00;99529.91;5047275;28;20191;-76
2022/08/17 01:31:59;;;;;;;6.63;6.20;;;;;;;19.20;100.00;99531.03;5054796;28;20181;-76
2022/08/17 01:34:25;;;;;;;6.73;6.23;;;;;;;19.16;100.00;99527.72;5044513;28;20236;-75
2022/08/17 01:36:51;;;;;;;6.83;6.30;;;;;;;19.10;100.00;99529.84;5042285;28;20500;-74
2022/08/17 01:39:28;;;;;;;6.97;6.47;;;;;;;19.06;100.00;99534.41;5048532;28;20184;-75
2022/08/17 01:42:03;;;;;;;6.50;6.00;;;;;;;19.03;100.00;99540.69;5044241;28;20208;-76
2022/08/17 01:44:28;;;;;;;6.70;6.20;;;;;;;18.99;100.00;99540.94;5044940;28;20416;-77
2022/08/17 01:46:54;;;;;;;7.03;6.53;;;;;;;18.99;100.00;99551.41;5050022;28;20280;-75
2022/08/17 01:49:19;;;;;;;7.17;6.57;;;;;;;18.96;100.00;99541.94;5044884;28;20222;-74
2022/08/17 01:51:45;;;;;;;6.97;6.47;;;;;;;18.94;100.00;99542.94;5045707;28;20227;-74
2022/08/17 01:54:13;;;;;;;6.97;6.50;;;;;;;18.87;100.00;99534.59;5047588;28;20211;-74
2022/08/17 01:56:42;;;;;;;6.57;6.07;;;;;;;18.77;100.00;99539.47;5044202;28;20201;-75
2022/08/17 01:59:08;;;;;;;6.50;6.07;;;;;;;18.69;100.00;99546.91;5041977;28;20190;-75
2022/08/17 02:01:34;;;;;;;6.70;6.20;;;;;;;18.67;100.00;99541.75;5052470;28;20205;-76
2022/08/17 02:04:00;;;;;;;6.93;6.43;;;;;;;18.67;100.00;99539.13;5041104;28;20710;-75
2022/08/17 02:06:28;;;;;;;6.67;6.20;;;;;;;18.70;100.00;99543.34;5044374;28;20249;-77
2022/08/17 02:08:54;;;;;;;6.67;6.17;;;;;;;18.72;100.00;99547.59;5044110;28;20198;-77
2022/08/17 02:11:20;;;;;;;6.50;6.10;;;;;;;18.71;100.00;99540.66;5045388;28;20356;-75
2022/08/17 02:13:50;;;;;;;7.70;7.13;;;;;;;18.72;100.00;99533.63;5043047;28;20206;-76
2022/08/17 02:16:17;;;;;;;7.43;6.93;;;;;;;18.69;100.00;99539.03;5061176;28;20292;-76
2022/08/17 02:18:42;;;;;;;7.33;6.83;;;;;;;18.68;100.00;99532.13;5042528;28;20192;-76
2022/08/17 02:21:08;;;;;;;6.57;6.17;;;;;;;18.70;100.00;99532.88;5044484;28;20218;-75
2022/08/17 02:23:37;;;;;;;7.90;7.30;;;;;;;18.70;100.00;99531.13;5044308;28;20215;-77
2022/08/17 02:26:03;;;;;;;6.90;6.40;;;;;;;18.71;100.00;99532.81;5043753;28;20472;-76
2022/08/17 02:28:29;;;;;;;7.33;6.83;;;;;;;18.71;100.00;99532.81;5041173;28;20218;-77
2022/08/17 02:30:56;;;;;;;7.47;6.97;;;;;;;18.68;100.00;99542.63;5043038;28;20222;-75
2022/08/17 02:33:22;;;;;;;7.67;7.17;;;;;;;18.63;100.00;99553.34;5043771;28;20211;-74
2022/08/17 02:35:47;;;;;;;7.13;6.53;;;;;;;18.58;100.00;99548.34;5042079;28;20195;-77
2022/08/17 02:38:13;;;;;;;6.97;6.50;;;;;;;18.59;100.00;99562.31;5051624;28;20274;-74
2022/08/17 02:40:39;;;;;;;7.33;6.80;;;;;;;18.57;100.00;99558.91;5048585;28;20197;-75
2022/08/17 02:43:08;;;;;;;7.27;6.77;;;;;;;18.55;100.00;99564.22;5044369;28;20215;-76
2022/08/17 02:45:34;;;;;;;7.40;6.90;;;;;;;18.54;100.00;99580.03;5045786;28;20209;-75
2022/08/17 02:47:59;;;;;;;6.97;6.53;;;;;;;18.53;100.00;99594.06;5045007;28;20185;-76
2022/08/17 02:50:25;;;;;;;7.90;7.30;;;;;;;18.52;100.00;99602.84;5043638;28;20180;-76
2022/08/17 02:52:51;;;;;;;7.57;6.97;;;;;;;18.52;100.00;99608.09;5046499;28;20203;-78
2022/08/17 02:55:17;;;;;;;8.37;7.67;;;;;;;18.53;100.00;99620.28;5049065;28;20271;-75
2022/08/17 02:57:43;;;;;;;8.40;7.70;;;;;;;18.57;100.00;99613.94;5047052;28;21089;-76
2022/08/17 03:00:13;;;;;;;8.87;8.00;;;;;;;18.63;100.00;99631.94;5048924;28;20195;-74
2022/08/17 03:02:41;;;;;;;8.83;8.23;;;;;;;18.67;100.00;99632.66;5041134;28;20217;-75
2022/08/17 03:05:08;;;;;;;9.30;8.53;;;;;;;18.78;100.00;99632.91;5048443;28;20197;-76
2022/08/17 03:07:34;;;;;;;9.87;9.17;;;;;;;18.80;100.00;99646.78;5050035;28;20195;-75
2022/08/17 03:09:59;;;;;;;9.90;8.90;;;;;;;18.86;100.00;99643.81;5045977;28;20695;-76
2022/08/17 03:12:28;;;;;;;9.40;8.70;;;;;;;18.89;100.00;99656.78;5051513;28;20218;-76
2022/08/17 03:14:53;;;;;;;9.80;9.10;;;;;;;18.93;100.00;99657.44;5044067;28;20190;-75
2022/08/17 03:17:18;;;;;;;10.07;9.10;;;;;;;18.98;100.00;99657.25;5049601;28;20190;-76
2022/08/17 03:19:44;;;;;;;9.90;9.20;;;;;;;18.97;100.00;99655.56;5049222;28;20970;-77
2022/08/17 03:22:09;;;;;;;10.10;9.30;;;;;;;19.01;100.00;99664.94;5045559;28;20204;-77
2022/08/17 03:24:35;;;;;;;10.00;9.20;;;;;;;19.00;100.00;99669.34;5047786;28;20174;-76
2022/08/17 03:27:00;;;;;;;9.23;8.43;;;;;;;19.01;100.00;99660.56;5040905;28;20281;-77
2022/08/17 03:29:26;;;;;;;10.10;9.10;;;;;;;19.03;100.00;99669.19;5042086;28;20218;-76
2022/08/17 03:31:51;;;;;;;9.40;8.60;;;;;;;19.06;100.00;99664.72;5040512;28;20186;-76
2022/08/17 03:34:17;;;;;;;9.43;8.73;;;;;;;19.08;100.00;99662.81;5046683;28;20212;-76
2022/08/17 03:36:42;;;;;;;9.90;9.07;;;;;;;19.11;100.00;99655.66;5044764;28;20529;-75
2022/08/17 03:39:08;;;;;;;10.00;9.23;;;;;;;19.11;100.00;99666.16;5039461;28;20193;-76
2022/08/17 03:41:34;;;;;;;10.17;9.37;;;;;;;19.13;100.00;99666.06;5044879;28;20237;-75
2022/08/17 03:44:00;;;;;;;9.90;9.20;;;;;;;19.16;100.00;99665.88;5047917;28;20719;-76
2022/08/17 03:57:24;;;;;;;9.50;8.80;;;;;;;19.32;100.00;99660.63;5047968;28;20231;-76
2022/08/17 03:59:50;;;;;;;9.83;9.13;;;;;;;19.34;100.00;99671.88;5038072;28;20212;-76
2022/08/17 04:02:23;;;;;;;10.30;9.60;;;;;;;19.40;100.00;99676.81;5044599;28;20236;-76
2022/08/17 04:04:52;;;;;;;10.43;9.47;;;;;;;19.42;100.00;99676.72;5057991;28;20224;-76
2022/08/17 04:07:20;;;;;;;9.67;8.97;;;;;;;19.46;100.00;99665.13;5047817;28;20196;-76
2022/08/17 04:09:45;;;;;;;9.40;8.70;;;;;;;19.48;100.00;99671.97;5045027;28;20207;-76
2022/08/17 04:12:14;;;;;;;9.63;8.83;;;;;;;19.54;100.00;99672.56;5043636;28;20228;-75
2022/08/17 04:14:40;;;;;;;9.30;8.60;;;;;;;19.59;100.00;99683.63;5041339;28;20192;-75
2022/08/17 04:17:06;;;;;;;9.70;9.00;;;;;;;19.62;100.00;99678.22;5047662;28;20187;-76
2022/08/17 04:19:31;;;;;;;10.53;9.63;;;;;;;19.65;100.00;99671.03;5044874;28;20692;-77
2022/08/17 04:21:56;;;;;;;10.33;9.63;;;;;;;19.67;100.00;99660.44;5059719;28;20267;-76
2022/08/17 04:24:23;;;;;;;10.70;9.80;;;;;;;19.71;100.00;99668.97;5047232;28;20236;-76
2022/08/17 04:26:49;;;;;;;10.10;9.23;;;;;;;19.71;100.00;99667.22;5044868;28;20228;-77
2022/08/17 04:29:15;;;;;;;10.13;9.50;;;;;;;19.73;100.00;99664.47;5048123;28;20203;-76
2022/08/17 04:31:41;;;;;;;10.53;9.77;;;;;;;19.73;100.00;99660.09;5045496;28;20194;-75
2022/08/17 04:34:08;;;;;;;10.27;9.53;;;;;;;19.73;100.00;99670.59;5042346;28;20206;-77
2022/08/17 04:36:33;;;;;;;10.00;9.17;;;;;;;19.75;100.00;99673.94;5040121;28;20186;-77
2022/08/17 04:38:59;;;;;;;8.97;8.37;;;;;;;19.76;100.00;99680.91;5041055;28;20552;-74
2022/08/17 04:44:10;;;;;;;9.37;8.77;;;;;;;19.79;100.00;99679.91;5045211;28;20224;-76
2022/08/17 04:46:35;;;;;;;9.83;9.13;;;;;;;19.83;100.00;99673.50;5046867;28;20188;-76
2022/08/17 04:49:07;;;;;;;10.10;9.33;;;;;;;19.88;100.00;99683.81;5042206;28;20327;-75
2022/08/17 04:51:46;;;;;;;9.47;8.77;;;;;;;19.91;100.00;99670.47;5051595;28;20193;-77
2022/08/17 04:54:21;;;;;;;9.30;8.67;;;;;;;19.95;100.00;99672.88;5042013;28;20594;-75
2022/08/17 04:56:47;;;;;;;9.30;8.60;;;;;;;19.99;100.00;99670.03;5048042;28;20205;-77
2022/08/17 04:59:15;;;;;;;9.33;8.53;;;;;;;20.05;100.00;99657.38;5046085;28;20189;-75
2022/08/17 05:01:44;;;;;;;8.97;8.37;;;;;;;20.12;100.00;99667.53;5056281;28;20218;-75
2022/08/17 05:04:12;;;;;;;8.73;8.13;;;;;;;20.21;100.00;99669.63;5040227;28;20692;-75
2022/08/17 05:06:38;;;;;;;9.17;8.47;;;;;;;20.31;100.00;99668.16;5046570;28;21087;-78
2022/08/17 05:09:04;;;;;;;8.50;7.90;;;;;;;20.40;100.00;99667.59;5040507;28;20248;-77
2022/08/17 05:11:30;;;;;;;8.80;8.20;;;;;;;20.48;100.00;99672.38;5042427;28;20209;-76
2022/08/17 05:13:57;;;;;;;7.87;7.27;;;;;;;20.54;100.00;99665.91;5040517;28;20292;-75
2022/08/17 05:16:24;;;;;;;8.03;7.43;;;;;;;20.60;100.00;99665.56;5048362;28;20187;-76
2022/08/17 05:18:50;;;;;;;8.27;7.70;;;;;;;20.68;100.00;99671.16;5040895;28;20273;-75
2022/08/17 05:21:17;;;;;;;7.67;7.17;;;;;;;20.73;100.00;99680.56;5041040;28;20228;-77
2022/08/17 05:23:42;;;;;;;7.90;7.40;;;;;;;20.77;100.00;99675.06;5047021;28;20254;-77
2022/08/17 05:26:12;;;;;;;7.60;7.00;;;;;;;20.85;100.00;99672.81;5060087;28;20213;-75
2022/08/17 05:28:38;;;;;;;7.40;6.90;;;;;;;20.92;100.00;99670.66;5043259;28;20190;-75
2022/08/17 05:31:03;;;;;;;7.63;7.00;;;;;;;21.00;100.00;99657.84;5042218;28;20186;-77
2022/08/17 05:33:33;;;;;;;8.13;7.50;;;;;;;21.09;100.00;99660.88;5047428;28;20297;-75
2022/08/17 05:36:00;;;;;;;7.80;7.10;;;;;;;21.40;99.18;99659.75;5049910;28;20175;-75
2022/08/17 05:38:27;;;;;;;7.07;6.57;;;;;;;21.63;98.16;99667.94;5048268;28;20209;-76
2022/08/17 05:40:54;;;;;;;8.00;7.30;;;;;;;21.69;97.91;99678.09;5046246;28;20170;-76
2022/08/17 05:43:27;;;;;;;7.77;6.87;;;;;;;21.90;97.17;99680.28;5046029;28;20203;-76
2022/08/17 05:46:20;;;;;;;8.03;7.33;;;;;;;22.43;94.92;99669.72;5047210;28;20182;-77
2022/08/17 05:48:54;;;;;;;7.67;7.00;;;;;;;22.82;92.83;99649.44;5045450;28;20201;-78
2022/08/17 05:51:26;;;;;;;7.77;7.17;;;;;;;23.16;91.71;99632.16;5052074;28;20187;-78
2022/08/17 05:54:05;;;;;;;6.60;6.10;;;;;;;23.31;91.14;99641.63;5044671;28;20207;-77
2022/08/17 05:56:49;;;;;;;6.60;6.20;;;;;;;23.34;91.30;99662.53;5053801;28;20193;-78
2022/08/17 05:59:27;;;;;;;6.67;6.23;;;;;;;23.27;91.63;99654.22;5042760;28;20239;-77
2022/08/17 06:02:15;;;;;;;7.03;6.37;;;;;;;23.19;91.96;99674.16;5038202;28;20749;-76
2022/08/17 06:05:02;;;;;;;7.30;6.70;;;;;;;23.06;92.54;99677.69;5037927;28;20194;-76
2022/08/17 06:07:50;;;;;;;6.80;6.30;;;;;;;22.99;92.70;99690.44;5047529;28;20187;-78
2022/08/17 06:10:20;;;;;;;6.73;6.30;;;;;;;22.94;93.04;99681.16;5034792;28;20227;-75
2022/08/17 06:13:01;;;;;;;7.17;6.67;;;;;;;22.82;93.32;99688.19;5058615;28;20255;-76
2022/08/17 06:15:42;;;;;;;7.40;6.83;;;;;;;22.69;94.17;99682.91;5061820;28;20843;-77
2022/08/17 06:18:35;;;;;;;7.43;6.83;;;;;;;22.52;95.60;99686.72;5041949;28;20191;-77
2022/08/17 06:21:05;;;;;;;8.07;7.37;;;;;;;22.38;96.23;99685.84;5049608;28;20229;-77
2022/08/17 06:23:47;;;;;;;8.77;7.90;;;;;;;22.27;98.30;99679.59;5043917;28;20214;-77
2022/08/17 06:26:23;;;;;;;7.83;7.13;;;;;;;22.17;99.13;99663.56;5046917;28;20296;-76
2022/08/17 06:28:53;;;;;;;8.63;8.03;;;;;;;22.09;99.94;99658.81;5048519;28;20316;-77
2022/08/17 06:31:26;;;;;;;8.33;7.63;;;;;;;22.06;100.00;99661.66;5055413;28;20189;-76
2022/08/17 06:33:52;;;;;;;8.17;7.60;;;;;;;22.04;100.00;99651.22;5060649;28;20666;-77
2022/08/17 06:36:34;;;;;;;8.40;7.70;;;;;;;22.04;100.00;99650.34;5043120;28;20232;-77
2022/08/17 06:39:34;;;;;;;8.23;7.60;;;;;;;22.01;100.00;99642.66;5068997;28;20239;-77
2022/08/17 06:42:18;;;;;;;8.37;7.77;;;;;;;21.96;100.00;99645.59;5020136;28;20231;-77
2022/08/17 06:44:48;;;;;;;8.73;8.13;;;;;;;21.95;100.00;99661.53;5041908;28;20206;-76
2022/08/17 06:47:56;;;;;;;8.27;7.63;;;;;;;21.92;100.00;99659.94;5045288;28;20170;-77
2022/08/17 06:50:45;;;;;;;8.63;8.03;;;;;;;21.84;100.00;99643.78;5025730;28;20190;-78
2022/08/17 06:53:41;;;;;;;8.53;7.93;;;;;;;21.77;100.00;99653.91;5041311;28;20291;-76
2022/08/17 06:56:10;;;;;;;8.67;8.03;;;;;;;21.75;100.00;99654.00;5028904;28;20218;-76
2022/08/17 06:58:37;;;;;;;8.80;8.10;;;;;;;21.77;100.00;99646.00;5042621;28;20195;-77
2022/08/17 07:01:09;;;;;;;8.50;7.80;;;;;;;21.77;100.00;99651.25;5047150;28;20706;-75
2022/08/17 07:03:46;;;;;;;8.13;7.60;;;;;;;21.76;100.00;99644.31;5034359;28;20246;-76
2022/08/17 07:06:17;;;;;;;8.87;8.13;;;;;;;21.77;100.00;99653.91;5048740;28;20567;-77
2022/08/17 07:08:53;;;;;;;8.17;7.57;;;;;;;21.81;100.00;99646.63;5048968;28;20179;-77
2022/08/17 07:11:39;;;;;;;8.83;8.03;;;;;;;21.82;100.00;99643.91;5055240;28;20178;-76
2022/08/17 07:14:23;;;;;;;9.00;8.30;;;;;;;21.90;100.00;99653.94;5039759;28;20211;-75
2022/08/17 07:16:52;;;;;;;8.63;7.93;;;;;;;22.03;100.00;99661.84;5035164;28;20192;-78
2022/08/17 07:19:21;;;;;;;9.10;8.33;;;;;;;22.21;100.00;99673.78;5041670;28;20213;-78
2022/08/17 07:22:12;;;;;;;10.13;9.33;;;;;;;22.38;100.00;99675.28;5044483;28;20700;-78
2022/08/17 07:25:09;;;;;;;9.63;8.83;;;;;;;22.53;100.00;99673.41;5041438;28;20223;-77
2022/08/17 07:27:44;;;;;;;9.80;9.00;;;;;;;22.56;100.00;99664.44;5042082;28;20198;-76
2022/08/17 07:30:21;;;;;;;10.03;9.13;;;;;;;22.51;100.00;99656.03;5047400;28;20186;-77
2022/08/17 07:32:52;;;;;;;11.07;10.13;;;;;;;22.33;100.00;99642.25;5047689;28;20202;-75
2022/08/17 07:35:29;;;;;;;11.03;9.97;;;;;;;22.15;100.00;99660.19;5054518;28;20265;-76
2022/08/17 07:38:22;;;;;;;10.77;9.97;;;;;;;22.10;100.00;99670.19;5043202;28;20185;-76
2022/08/17 07:40:56;;;;;;;11.10;10.10;;;;;;;21.98;100.00;99666.59;5036681;28;20194;-75
2022/08/17 07:43:27;;;;;;;10.27;9.47;;;;;;;21.86;100.00;99666.44;5059099;28;20252;-77
2022/08/17 07:48:51;;;;;;;11.03;10.20;;;;;;;21.58;100.00;99662.97;5039164;28;20205;-76
2022/08/17 07:51:32;;;;;;;12.63;11.17;;;;;;;21.45;100.00;99669.97;5046273;28;20197;-76
2022/08/17 07:54:21;;;;;;;11.10;10.20;;;;;;;21.40;100.00;99669.44;5044768;28;20202;-77
2022/08/17 07:57:02;;;;;;;11.27;10.30;;;;;;;21.42;100.00;99676.28;5060792;28;20197;-77
2022/08/17 07:59:35;;;;;;;11.80;10.80;;;;;;;21.43;100.00;99677.13;5037453;28;20332;-76
2022/08/17 08:02:13;;;;;;;10.40;9.70;;;;;;;21.42;100.00;99662.25;5044599;28;20577;-76
2022/08/17 08:04:42;;;;;;;11.40;10.37;;;;;;;21.40;100.00;99661.53;5044675;28;20190;-77
2022/08/17 08:07:16;;;;;;;11.27;10.47;;;;;;;21.37;100.00;99667.00;5043460;28;20179;-75
2022/08/17 08:10:00;;;;;;;10.60;9.80;;;;;;;21.36;100.00;99666.13;5037831;28;20865;-77
2022/08/17 08:12:26;;;;;;;10.70;9.90;;;;;;;21.34;100.00;99672.44;5036656;28;20198;-74
2022/08/17 08:14:58;;;;;;;11.20;10.27;;;;;;;21.33;100.00;99674.22;5044308;28;20197;-76
2022/08/17 08:17:43;;;;;;;10.77;9.67;;;;;;;21.32;100.00;99654.97;5041210;28;20190;-76
2022/08/17 08:20:09;;;;;;;10.37;9.57;;;;;;;21.35;100.00;99650.47;5070882;28;20199;-76
2022/08/17 08:22:38;;;;;;;9.73;9.03;;;;;;;21.43;100.00;99651.66;5046668;28;20214;-76
2022/08/17 08:25:04;;;;;;;9.83;9.13;;;;;;;21.52;100.00;99652.84;5038712;28;20199;-76
2022/08/17 08:27:32;;;;;;;9.67;8.93;;;;;;;21.58;100.00;99648.97;5045538;28;20182;-76
2022/08/17 08:30:20;;;;;;;9.67;8.80;;;;;;;21.58;100.00;99656.88;5051084;28;20941;-76
2022/08/17 08:32:54;;;;;;;8.73;8.07;;;;;;;21.61;100.00;99661.97;5032525;28;20199;-76
2022/08/17 08:35:32;;;;;;;8.00;7.43;;;;;;;21.62;100.00;99672.38;5041149;28;20205;-76
2022/08/17 08:38:59;;;;;;;8.33;7.73;;;;;;;21.67;100.00;99672.09;5049960;28;20245;-76
2022/08/17 08:42:09;;;;;;;8.47;7.87;;;;;;;21.80;100.00;99680.03;5014918;28;20221;-77
2022/08/17 08:44:45;;;;;;;8.07;7.57;;;;;;;21.97;100.00;99688.63;5041551;28;20249;-76
2022/08/17 08:47:31;;;;;;;7.90;7.30;;;;;;;22.09;100.00;99679.88;5065073;28;20182;-77
2022/08/17 08:49:59;;;;;;;7.40;6.80;;;;;;;22.22;100.00;99693.09;5064480;28;20274;-77
2022/08/17 08:52:33;;;;;;;7.03;6.53;;;;;;;22.31;100.00;99703.00;5056588;28;20187;-77
2022/08/17 08:55:18;;;;;;;6.57;6.13;;;;;;;22.34;100.00;99694.91;5041774;28;20550;-75
2022/08/17 08:57:59;;;;;;;6.20;5.77;;;;;;;22.37;100.00;99707.00;5053016;28;20723;-75
2022/08/17 09:00:26;;;;;;;6.50;6.00;;;;;;;22.40;100.00;99714.72;5049702;28;20301;-76
2022/08/17 09:03:23;;;;;;;7.03;6.43;;;;;;;22.46;100.00;99721.41;5045781;28;20778;-75
2022/08/17 09:06:06;;;;;;;7.80;7.17;;;;;;;22.44;100.00;99695.16;5062040;28;20179;-77
2022/08/17 09:08:43;;;;;;;8.90;8.20;;;;;;;22.38;100.00;99682.34;5048496;28;20197;-75
2022/08/17 09:11:27;;;;;;;8.53;7.83;;;;;;;22.30;100.00;99690.78;5047251;28;20178;-75
2022/08/17 09:14:01;;;;;;;9.37;8.67;;;;;;;22.23;100.00;99710.59;5050677;28;20210;-76
2022/08/17 09:16:34;;;;;;;10.20;9.20;;;;;;;22.22;100.00;99707.09;5045909;28;20182;-75
2022/08/17 09:19:30;;;;;;;10.00;9.00;;;;;;;22.29;100.00;99693.53;5058044;28;20194;-77
2022/08/17 09:22:16;;;;;;;11.43;10.03;;;;;;;22.18;100.00;99668.72;5043264;28;20235;-77
2022/08/17 09:25:09;;;;;;;10.10;9.23;;;;;;;22.00;100.00;99701.59;5041450;28;20175;-75
2022/08/17 09:27:46;;;;;;;10.10;9.30;;;;;;;21.93;100.00;99732.75;5041933;28;20542;-75
2022/08/17 09:30:13;;;;;;;9.70;9.00;;;;;;;21.97;100.00;99730.78;5039775;28;20185;-77
2022/08/17 09:32:50;;;;;;;9.17;8.47;;;;;;;22.07;100.00;99751.16;5060579;28;20207;-76
2022/08/17 09:35:23;;;;;;;9.07;8.37;;;;;;;22.24;100.00;99778.16;5046817;28;20322;-76
2022/08/17 09:38:04;;;;;;;9.03;8.43;;;;;;;22.42;100.00;99802.50;5043283;28;20179;-76
2022/08/17 09:40:32;;;;;;;8.13;7.53;;;;;;;22.58;100.00;99807.56;5048001;28;20243;-76
2022/08/17 09:43:15;;;;;;;8.80;8.10;;;;;;;22.69;100.00;99823.53;5049167;28;20236;-76
2022/08/17 09:45:50;;;;;;;8.73;8.13;;;;;;;22.79;100.00;99841.38;5048840;28;20235;-76
2022/08/17 09:48:18;;;;;;;9.07;8.47;;;;;;;22.85;100.00;99848.88;5043044;28;20542;-77
2022/08/17 09:50:54;;;;;;;9.73;9.03;;;;;;;22.89;100.00;99833.69;5056839;28;20182;-77
2022/08/17 09:53:19;;;;;;;8.50;8.00;;;;;;;22.86;100.00;99853.19;5049628;28;20291;-76
2022/08/17 09:56:01;;;;;;;9.53;8.83;;;;;;;22.81;100.00;99860.59;5054438;28;20269;-76
2022/08/17 09:58:46;;;;;;;8.80;8.20;;;;;;;22.77;100.00;99862.56;5045668;28;20269;-77
2022/08/17 10:01:34;;;;;;;8.87;8.27;;;;;;;22.81;100.00;99866.69;5044211;28;20194;-76
2022/08/17 10:04:18;;;;;;;9.70;8.80;;;;;;;22.93;100.00;99864.19;5036205;28;20214;-76
2022/08/17 10:06:57;;;;;;;9.23;8.43;;;;;;;23.12;100.00;99877.00;5048268;28;20265;-76
2022/08/17 10:09:25;;;;;;;9.07;8.37;;;;;;;23.43;100.00;99869.63;5046362;28;20476;-75
2022/08/17 10:12:18;;;;;;;9.60;8.90;;;;;;;23.84;100.00;99871.13;5042201;28;20191;-77
2022/08/17 10:15:12;;;;;;;9.20;8.60;;;;;;;24.29;100.00;99890.91;5051988;28;20178;-77
2022/08/17 10:18:07;;;;;;;9.97;9.27;;;;;;;24.55;100.00;99890.78;5041938;28;20183;-77
2022/08/17 10:26:11;;;;;;;9.90;9.20;;;;;;;24.70;100.00;99902.88;5059118;28;20971;-77
2022/08/17 10:26:34;;;;;;;10.40;9.60;;;;;;;25.02;100.00;99896.16;5040691;28;20201;-76
2022/08/17 10:29:37;;;;;;;9.87;9.10;;;;;;;25.05;100.00;99899.41;5043628;28;20205;-76
2022/08/17 10:32:10;;;;;;;8.97;8.27;;;;;;;25.08;100.00;99898.31;5032638;28;20244;-77
2022/08/17 10:34:35;;;;;;;7.97;7.47;;;;;;;25.11;100.00;99895.44;5048462;28;20552;-76
2022/08/17 10:37:23;;;;;;;8.60;8.00;;;;;;;25.09;100.00;99897.34;5045998;28;20195;-76
2022/08/17 10:40:07;;;;;;;7.97;7.37;;;;;;;25.04;100.00;99894.19;5045899;28;20552;-75
2022/08/17 10:42:50;;;;;;;7.97;7.37;;;;;;;25.02;100.00;99888.22;5043339;28;20210;-77
2022/08/17 10:45:53;;;;;;;7.20;6.80;;;;;;;25.10;100.00;99870.78;5046530;28;20182;-77
2022/08/17 10:48:31;;;;;;;6.70;6.20;;;;;;;25.22;100.00;99853.06;5040493;28;20198;-77
2022/08/17 10:51:07;;;;;;;7.50;7.00;;;;;;;25.31;99.70;99861.28;5036281;28;20655;-77
2022/08/17 10:53:49;;;;;;;6.87;6.37;;;;;;;25.38;98.78;99889.81;5042655;28;20209;-77
2022/08/17 10:56:17;;;;;;;6.77;6.13;;;;;;;25.44;97.09;99866.47;5044562;28;20217;-76
2022/08/17 10:58:57;;;;;;;6.50;6.10;;;;;;;25.47;96.49;99872.41;5042164;28;20618;-77
2022/08/17 11:01:32;;;;;;;6.00;5.60;;;;;;;25.53;96.20;99865.78;5058254;28;21003;-78
2022/08/17 11:04:20;;;;;;;5.90;5.40;;;;;;;25.60;95.86;99851.06;5044430;28;20203;-79
2022/08/17 11:07:13;;;;;;;6.10;5.60;;;;;;;25.70;95.02;99851.19;5044689;28;20193;-75
2022/08/17 11:09:53;;;;;;;5.80;5.30;;;;;;;25.85;93.53;99843.81;5039821;28;20184;-78
2022/08/17 11:12:25;;;;;;;6.03;5.60;;;;;;;26.03;92.95;99844.97;5036820;28;20198;-78
2022/08/17 11:15:18;;;;;;;5.77;5.33;;;;;;;26.39;91.31;99843.91;5042822;28;20757;-74
2022/08/17 11:18:21;;;;;;;5.03;4.67;;;;;;;26.87;89.91;99842.59;5041867;28;20272;-77
2022/08/17 11:21:01;;;;;;;5.13;4.80;;;;;;;27.29;88.19;99845.22;5047585;28;20251;-74
2022/08/17 11:24:12;;;;;;;5.10;4.70;;;;;;;27.67;87.25;99840.22;5045507;28;20600;-75
2022/08/17 11:26:45;;;;;;;5.03;4.63;;;;;;;27.86;83.23;99835.91;5040516;28;20204;-78
2022/08/17 11:29:22;;;;;;;5.40;5.00;;;;;;;27.82;82.25;99830.03;5041567;28;20556;-76
2022/08/17 11:32:14;;;;;;;5.23;4.83;;;;;;;27.78;82.48;99823.28;5041064;28;20183;-78
2022/08/17 11:34:43;;;;;;;5.30;4.90;;;;;;;27.75;83.36;99821.75;5044738;28;20193;-76
2022/08/17 11:37:34;;;;;;;4.90;4.50;;;;;;;27.80;83.92;99816.03;5050521;28;20202;-76
2022/08/17 11:40:32;;;;;;;4.67;4.27;;;;;;;27.89;83.75;99803.72;5040612;28;20194;-77
2022/08/17 11:43:27;;;;;;;4.47;4.17;;;;;;;28.01;83.60;99788.50;5031263;28;20230;-77
2022/08/17 11:46:08;;;;;;;4.67;4.37;;;;;;;28.02;81.83;99771.56;5041181;28;20190;-74
2022/08/17 11:51:53;;;;;;;4.80;4.50;;;;;;;27.82;79.86;99750.25;5042435;28;20181;-76
2022/08/17 11:54:43;;;;;;;5.00;4.60;;;;;;;27.51;79.58;99740.59;5046926;28;20703;-77
2022/08/17 11:57:41;;;;;;;5.03;4.73;;;;;;;27.31;80.63;99741.47;5044193;28;20550;-77
2022/08/17 12:00:28;;;;;;;4.43;4.13;;;;;;;27.08;81.25;99737.22;5042055;28;20195;-75
2022/08/17 12:03:23;;;;;;;5.00;4.63;;;;;;;26.88;81.75;99738.09;5062759;28;20221;-77
2022/08/17 12:06:01;;;;;;;5.13;4.77;;;;;;;26.77;82.30;99741.66;5050169;28;20202;-77
2022/08/17 12:08:29;;;;;;;5.20;4.80;;;;;;;26.41;82.43;99733.22;5060980;28;20308;-79
2022/08/17 12:11:08;;;;;;;5.50;5.10;;;;;;;26.31;82.67;99746.41;5048707;28;20187;-79
2022/08/17 12:13:43;;;;;;;4.70;4.40;;;;;;;26.48;82.45;99775.03;5045959;28;20199;-78
2022/08/17 12:16:14;;;;;;;5.20;4.80;;;;;;;26.63;82.61;99774.69;5045401;28;20278;-77
2022/08/17 12:18:57;;;;;;;4.90;4.60;;;;;;;26.81;82.22;99761.69;5045397;28;20186;-75
2022/08/17 12:21:43;;;;;;;4.63;4.33;;;;;;;27.00;81.48;99770.72;5043082;28;20206;-75